sensor_id;sensor_type;location;lat;lon;timestamp;P1;durP1;ratioP1;P2;durP2;ratioP2
74064;SDS011;62421;51.412;5.432;2023-10-09T00:02:09;20.88;;;10.57;;
74064;SDS011;62421;51.412;5.432;2023-10-09T00:04:38;21.17;;;10.35;;
74064;SDS011;62421;51.412;5.432;2023-10-09T00:07:06;23.80;;;10.17;;
74064;SDS011;62421;51.412;5.432;2023-10-09T00:09:35;18.77;;;9.73;;
74064;SDS011;62421;51.412;5.432;2023-10-09T00:12:16;20.45;;;10.18;;
74064;SDS011;62421;51.412;5.432;2023-10-09T00:14:47;23.38;;;10.43;;
74064;SDS011;62421;51.412;5.432;2023-10-09T00:17:16;24.90;;;10.70;;
74064;SDS011;62421;51.412;5.432;2023-10-09T00:19:46;22.30;;;9.43;;
74064;SDS011;62421;51.412;5.432;2023-10-09T00:22:24;19.50;;;9.02;;
74064;SDS011;62421;51.412;5.432;2023-10-09T00:24:54;26.17;;;11.95;;
74064;SDS011;62421;51.412;5.432;2023-10-09T00:27:36;19.38;;;10.23;;
74064;SDS011;62421;51.412;5.432;2023-10-09T00:30:10;19.90;;;10.43;;
74064;SDS011;62421;51.412;5.432;2023-10-09T00:32:43;22.73;;;10.93;;
74064;SDS011;62421;51.412;5.432;2023-10-09T00:35:29;19.70;;;10.15;;
74064;SDS011;62421;51.412;5.432;2023-10-09T00:38:19;20.73;;;11.07;;
74064;SDS011;62421;51.412;5.432;2023-10-09T00:40:47;17.75;;;10.32;;
74064;SDS011;62421;51.412;5.432;2023-10-09T00:43:22;22.58;;;11.90;;
74064;SDS011;62421;51.412;5.432;2023-10-09T00:45:53;19.17;;;10.47;;
74064;SDS011;62421;51.412;5.432;2023-10-09T00:48:19;20.27;;;9.95;;
74064;SDS011;62421;51.412;5.432;2023-10-09T00:50:56;23.13;;;10.50;;
74064;SDS011;62421;51.412;5.432;2023-10-09T00:53:25;20.25;;;11.07;;
74064;SDS011;62421;51.412;5.432;2023-10-09T00:55:58;20.83;;;10.43;;
74064;SDS011;62421;51.412;5.432;2023-10-09T00:58:36;19.50;;;9.85;;
74064;SDS011;62421;51.412;5.432;2023-10-09T01:01:01;23.87;;;11.20;;
74064;SDS011;62421;51.412;5.432;2023-10-09T01:03:29;23.50;;;10.68;;
74064;SDS011;62421;51.412;5.432;2023-10-09T01:05:59;18.52;;;10.60;;
74064;SDS011;62421;51.412;5.432;2023-10-09T01:08:41;18.35;;;9.80;;
74064;SDS011;62421;51.412;5.432;2023-10-09T01:13:35;21.13;;;11.23;;
74064;SDS011;62421;51.412;5.432;2023-10-09T01:16:17;19.83;;;9.93;;
74064;SDS011;62421;51.412;5.432;2023-10-09T01:18:47;21.90;;;11.03;;
74064;SDS011;62421;51.412;5.432;2023-10-09T01:21:20;19.58;;;9.95;;
74064;SDS011;62421;51.412;5.432;2023-10-09T01:23:50;20.65;;;10.48;;
74064;SDS011;62421;51.412;5.432;2023-10-09T01:29:10;21.50;;;10.65;;
74064;SDS011;62421;51.412;5.432;2023-10-09T01:31:44;18.17;;;10.20;;
74064;SDS011;62421;51.412;5.432;2023-10-09T01:34:30;22.50;;;11.60;;
74064;SDS011;62421;51.412;5.432;2023-10-09T01:37:13;23.52;;;10.82;;
74064;SDS011;62421;51.412;5.432;2023-10-09T01:39:57;22.60;;;11.13;;
74064;SDS011;62421;51.412;5.432;2023-10-09T01:42:24;24.70;;;10.45;;
74064;SDS011;62421;51.412;5.432;2023-10-09T01:44:50;18.17;;;10.27;;
74064;SDS011;62421;51.412;5.432;2023-10-09T01:47:17;22.35;;;10.95;;
74064;SDS011;62421;51.412;5.432;2023-10-09T01:49:44;19.33;;;10.90;;
74064;SDS011;62421;51.412;5.432;2023-10-09T01:52:14;20.02;;;10.50;;
74064;SDS011;62421;51.412;5.432;2023-10-09T01:54:47;21.50;;;11.43;;
74064;SDS011;62421;51.412;5.432;2023-10-09T01:57:19;19.50;;;10.33;;
74064;SDS011;62421;51.412;5.432;2023-10-09T01:59:48;20.83;;;11.85;;
74064;SDS011;62421;51.412;5.432;2023-10-09T02:02:20;22.13;;;10.82;;
74064;SDS011;62421;51.412;5.432;2023-10-09T02:07:18;22.58;;;11.18;;
74064;SDS011;62421;51.412;5.432;2023-10-09T02:09:55;23.07;;;10.50;;
74064;SDS011;62421;51.412;5.432;2023-10-09T02:12:21;23.02;;;10.98;;
74064;SDS011;62421;51.412;5.432;2023-10-09T02:14:48;23.80;;;11.55;;
74064;SDS011;62421;51.412;5.432;2023-10-09T02:17:14;22.30;;;11.63;;
74064;SDS011;62421;51.412;5.432;2023-10-09T02:19:43;23.95;;;11.50;;
74064;SDS011;62421;51.412;5.432;2023-10-09T02:22:13;25.70;;;11.40;;
74064;SDS011;62421;51.412;5.432;2023-10-09T02:24:43;20.98;;;10.68;;
74064;SDS011;62421;51.412;5.432;2023-10-09T02:27:25;20.42;;;10.45;;
74064;SDS011;62421;51.412;5.432;2023-10-09T02:30:10;23.77;;;9.83;;
74064;SDS011;62421;51.412;5.432;2023-10-09T02:32:45;23.98;;;12.23;;
74064;SDS011;62421;51.412;5.432;2023-10-09T02:35:19;23.67;;;12.25;;
74064;SDS011;62421;51.412;5.432;2023-10-09T02:38:03;21.80;;;11.07;;
74064;SDS011;62421;51.412;5.432;2023-10-09T02:40:34;24.10;;;11.93;;
74064;SDS011;62421;51.412;5.432;2023-10-09T02:43:19;24.40;;;12.00;;
74064;SDS011;62421;51.412;5.432;2023-10-09T02:45:44;21.92;;;10.77;;
74064;SDS011;62421;51.412;5.432;2023-10-09T02:48:15;19.13;;;10.90;;
74064;SDS011;62421;51.412;5.432;2023-10-09T02:50:51;19.90;;;10.75;;
74064;SDS011;62421;51.412;5.432;2023-10-09T02:53:16;26.40;;;10.67;;
74064;SDS011;62421;51.412;5.432;2023-10-09T02:55:45;21.80;;;11.82;;
74064;SDS011;62421;51.412;5.432;2023-10-09T02:58:30;19.08;;;10.70;;
74064;SDS011;62421;51.412;5.432;2023-10-09T03:01:01;27.75;;;10.68;;
74064;SDS011;62421;51.412;5.432;2023-10-09T03:03:27;22.83;;;10.97;;
74064;SDS011;62421;51.412;5.432;2023-10-09T03:05:53;26.63;;;12.02;;
74064;SDS011;62421;51.412;5.432;2023-10-09T03:08:18;26.07;;;12.63;;
74064;SDS011;62421;51.412;5.432;2023-10-09T03:10:44;22.57;;;12.40;;
74064;SDS011;62421;51.412;5.432;2023-10-09T03:13:10;25.27;;;11.10;;
74064;SDS011;62421;51.412;5.432;2023-10-09T03:15:35;26.13;;;11.57;;
74064;SDS011;62421;51.412;5.432;2023-10-09T03:18:03;21.17;;;10.60;;
74064;SDS011;62421;51.412;5.432;2023-10-09T03:20:29;27.70;;;11.40;;
74064;SDS011;62421;51.412;5.432;2023-10-09T03:22:55;21.38;;;11.18;;
74064;SDS011;62421;51.412;5.432;2023-10-09T03:25:22;22.53;;;11.57;;
74064;SDS011;62421;51.412;5.432;2023-10-09T03:27:50;24.10;;;10.75;;
74064;SDS011;62421;51.412;5.432;2023-10-09T03:30:17;20.83;;;11.30;;
74064;SDS011;62421;51.412;5.432;2023-10-09T03:32:47;22.88;;;10.90;;
74064;SDS011;62421;51.412;5.432;2023-10-09T03:35:16;22.95;;;11.10;;
74064;SDS011;62421;51.412;5.432;2023-10-09T03:37:59;20.77;;;10.83;;
74064;SDS011;62421;51.412;5.432;2023-10-09T03:40:27;20.02;;;11.73;;
74064;SDS011;62421;51.412;5.432;2023-10-09T03:42:54;27.13;;;10.48;;
74064;SDS011;62421;51.412;5.432;2023-10-09T03:45:19;20.67;;;10.97;;
74064;SDS011;62421;51.412;5.432;2023-10-09T03:47:56;21.25;;;10.88;;
74064;SDS011;62421;51.412;5.432;2023-10-09T03:50:26;21.27;;;10.93;;
74064;SDS011;62421;51.412;5.432;2023-10-09T03:52:54;26.38;;;11.48;;
74064;SDS011;62421;51.412;5.432;2023-10-09T03:55:20;22.40;;;11.73;;
74064;SDS011;62421;51.412;5.432;2023-10-09T03:57:47;25.55;;;11.07;;
74064;SDS011;62421;51.412;5.432;2023-10-09T04:00:13;25.08;;;10.98;;
74064;SDS011;62421;51.412;5.432;2023-10-09T04:02:52;22.75;;;10.82;;
74064;SDS011;62421;51.412;5.432;2023-10-09T04:05:22;27.63;;;12.13;;
74064;SDS011;62421;51.412;5.432;2023-10-09T04:07:48;20.67;;;10.95;;
74064;SDS011;62421;51.412;5.432;2023-10-09T04:10:14;21.95;;;11.32;;
74064;SDS011;62421;51.412;5.432;2023-10-09T04:13:08;23.60;;;11.60;;
74064;SDS011;62421;51.412;5.432;2023-10-09T04:15:36;24.07;;;11.47;;
74064;SDS011;62421;51.412;5.432;2023-10-09T04:18:02;20.45;;;11.75;;
74064;SDS011;62421;51.412;5.432;2023-10-09T04:20:29;24.93;;;12.10;;
74064;SDS011;62421;51.412;5.432;2023-10-09T04:22:54;22.90;;;11.82;;
74064;SDS011;62421;51.412;5.432;2023-10-09T04:25:30;21.65;;;11.63;;
74064;SDS011;62421;51.412;5.432;2023-10-09T04:28:06;25.60;;;12.40;;
74064;SDS011;62421;51.412;5.432;2023-10-09T04:30:47;21.30;;;11.07;;
74064;SDS011;62421;51.412;5.432;2023-10-09T04:33:19;23.60;;;11.82;;
74064;SDS011;62421;51.412;5.432;2023-10-09T04:36:03;21.60;;;11.63;;
74064;SDS011;62421;51.412;5.432;2023-10-09T04:38:54;23.08;;;12.02;;
74064;SDS011;62421;51.412;5.432;2023-10-09T04:41:31;24.45;;;12.80;;
74064;SDS011;62421;51.412;5.432;2023-10-09T04:43:58;23.02;;;11.95;;
74064;SDS011;62421;51.412;5.432;2023-10-09T04:46:53;21.35;;;11.88;;
74064;SDS011;62421;51.412;5.432;2023-10-09T04:49:34;23.07;;;11.90;;
74064;SDS011;62421;51.412;5.432;2023-10-09T04:52:19;24.25;;;12.27;;
74064;SDS011;62421;51.412;5.432;2023-10-09T04:54:50;28.63;;;12.88;;
74064;SDS011;62421;51.412;5.432;2023-10-09T05:00:10;25.65;;;12.38;;
74064;SDS011;62421;51.412;5.432;2023-10-09T05:05:22;26.10;;;12.65;;
74064;SDS011;62421;51.412;5.432;2023-10-09T05:08:06;23.15;;;12.60;;
74064;SDS011;62421;51.412;5.432;2023-10-09T05:10:50;30.63;;;12.75;;
74064;SDS011;62421;51.412;5.432;2023-10-09T05:16:04;29.77;;;14.07;;
74064;SDS011;62421;51.412;5.432;2023-10-09T05:18:48;25.95;;;12.15;;
74064;SDS011;62421;51.412;5.432;2023-10-09T05:21:33;27.73;;;13.43;;
74064;SDS011;62421;51.412;5.432;2023-10-09T05:24:08;27.58;;;13.85;;
74064;SDS011;62421;51.412;5.432;2023-10-09T05:26:37;33.10;;;13.73;;
74064;SDS011;62421;51.412;5.432;2023-10-09T05:29:13;28.27;;;13.27;;
74064;SDS011;62421;51.412;5.432;2023-10-09T05:32:03;30.40;;;13.82;;
74064;SDS011;62421;51.412;5.432;2023-10-09T05:34:42;26.92;;;14.00;;
74064;SDS011;62421;51.412;5.432;2023-10-09T05:37:24;24.85;;;14.18;;
74064;SDS011;62421;51.412;5.432;2023-10-09T05:40:00;41.00;;;14.23;;
74064;SDS011;62421;51.412;5.432;2023-10-09T05:42:35;29.63;;;13.93;;
74064;SDS011;62421;51.412;5.432;2023-10-09T05:45:07;27.48;;;13.60;;
74064;SDS011;62421;51.412;5.432;2023-10-09T05:47:42;39.67;;;14.75;;
74064;SDS011;62421;51.412;5.432;2023-10-09T05:50:32;25.20;;;13.30;;
74064;SDS011;62421;51.412;5.432;2023-10-09T05:53:03;28.60;;;14.13;;
74064;SDS011;62421;51.412;5.432;2023-10-09T05:55:29;29.07;;;14.73;;
74064;SDS011;62421;51.412;5.432;2023-10-09T05:58:14;31.38;;;13.27;;
74064;SDS011;62421;51.412;5.432;2023-10-09T06:00:57;31.88;;;15.20;;
74064;SDS011;62421;51.412;5.432;2023-10-09T06:03:41;29.67;;;14.30;;
74064;SDS011;62421;51.412;5.432;2023-10-09T06:06:21;25.08;;;14.60;;
74064;SDS011;62421;51.412;5.432;2023-10-09T06:09:07;28.90;;;13.67;;
74064;SDS011;62421;51.412;5.432;2023-10-09T06:11:39;33.92;;;14.38;;
74064;SDS011;62421;51.412;5.432;2023-10-09T06:14:05;26.90;;;13.50;;
74064;SDS011;62421;51.412;5.432;2023-10-09T06:16:34;30.15;;;14.13;;
74064;SDS011;62421;51.412;5.432;2023-10-09T06:19:18;28.35;;;14.18;;
74064;SDS011;62421;51.412;5.432;2023-10-09T06:22:05;29.50;;;15.03;;
74064;SDS011;62421;51.412;5.432;2023-10-09T06:24:37;31.23;;;14.60;;
74064;SDS011;62421;51.412;5.432;2023-10-09T06:27:18;32.75;;;14.80;;
74064;SDS011;62421;51.412;5.432;2023-10-09T06:29:57;26.52;;;14.60;;
74064;SDS011;62421;51.412;5.432;2023-10-09T06:32:58;32.47;;;15.13;;
74064;SDS011;62421;51.412;5.432;2023-10-09T06:35:33;30.10;;;14.13;;
74064;SDS011;62421;51.412;5.432;2023-10-09T06:38:00;34.00;;;13.93;;
74064;SDS011;62421;51.412;5.432;2023-10-09T06:40:47;29.75;;;15.07;;
74064;SDS011;62421;51.412;5.432;2023-10-09T06:43:31;28.23;;;15.23;;
74064;SDS011;62421;51.412;5.432;2023-10-09T06:46:01;33.77;;;14.50;;
74064;SDS011;62421;51.412;5.432;2023-10-09T06:48:56;28.95;;;13.80;;
74064;SDS011;62421;51.412;5.432;2023-10-09T06:51:22;30.23;;;15.30;;
74064;SDS011;62421;51.412;5.432;2023-10-09T06:53:50;31.73;;;15.60;;
74064;SDS011;62421;51.412;5.432;2023-10-09T06:56:23;34.92;;;15.32;;
74064;SDS011;62421;51.412;5.432;2023-10-09T06:58:59;32.83;;;15.57;;
74064;SDS011;62421;51.412;5.432;2023-10-09T07:01:30;26.97;;;14.80;;
74064;SDS011;62421;51.412;5.432;2023-10-09T07:04:10;31.17;;;15.57;;
74064;SDS011;62421;51.412;5.432;2023-10-09T07:07:05;29.80;;;15.43;;
74064;SDS011;62421;51.412;5.432;2023-10-09T07:09:45;28.23;;;14.18;;
74064;SDS011;62421;51.412;5.432;2023-10-09T07:12:32;32.00;;;15.10;;
74064;SDS011;62421;51.412;5.432;2023-10-09T07:14:59;30.53;;;14.43;;
74064;SDS011;62421;51.412;5.432;2023-10-09T07:17:30;27.33;;;14.63;;
74064;SDS011;62421;51.412;5.432;2023-10-09T07:19:58;26.08;;;14.52;;
74064;SDS011;62421;51.412;5.432;2023-10-09T07:22:34;30.08;;;13.52;;
74064;SDS011;62421;51.412;5.432;2023-10-09T07:25:04;28.25;;;13.73;;
74064;SDS011;62421;51.412;5.432;2023-10-09T07:27:40;27.53;;;15.17;;
74064;SDS011;62421;51.412;5.432;2023-10-09T07:30:13;25.98;;;13.85;;
74064;SDS011;62421;51.412;5.432;2023-10-09T07:35:35;25.63;;;13.90;;
74064;SDS011;62421;51.412;5.432;2023-10-09T07:38:07;27.65;;;13.52;;
74064;SDS011;62421;51.412;5.432;2023-10-09T07:40:34;27.83;;;13.70;;
74064;SDS011;62421;51.412;5.432;2023-10-09T07:43:21;27.10;;;14.35;;
74064;SDS011;62421;51.412;5.432;2023-10-09T07:45:51;30.10;;;14.48;;
74064;SDS011;62421;51.412;5.432;2023-10-09T07:48:23;28.38;;;13.45;;
74064;SDS011;62421;51.412;5.432;2023-10-09T07:50:51;26.30;;;14.15;;
74064;SDS011;62421;51.412;5.432;2023-10-09T07:53:22;26.50;;;13.87;;
74064;SDS011;62421;51.412;5.432;2023-10-09T07:55:54;29.05;;;14.90;;
74064;SDS011;62421;51.412;5.432;2023-10-09T07:58:31;24.67;;;13.82;;
74064;SDS011;62421;51.412;5.432;2023-10-09T08:00:58;28.27;;;14.18;;
74064;SDS011;62421;51.412;5.432;2023-10-09T08:03:36;31.23;;;14.18;;
74064;SDS011;62421;51.412;5.432;2023-10-09T08:06:02;37.60;;;15.37;;
74064;SDS011;62421;51.412;5.432;2023-10-09T08:08:46;30.73;;;14.68;;
74064;SDS011;62421;51.412;5.432;2023-10-09T08:11:30;29.08;;;14.40;;
74064;SDS011;62421;51.412;5.432;2023-10-09T08:14:16;28.80;;;13.88;;
74064;SDS011;62421;51.412;5.432;2023-10-09T08:16:47;30.88;;;14.98;;
74064;SDS011;62421;51.412;5.432;2023-10-09T08:19:13;44.33;;;14.93;;
74064;SDS011;62421;51.412;5.432;2023-10-09T08:21:56;30.92;;;14.98;;
74064;SDS011;62421;51.412;5.432;2023-10-09T08:24:40;29.35;;;14.40;;
74064;SDS011;62421;51.412;5.432;2023-10-09T08:27:06;28.97;;;14.17;;
74064;SDS011;62421;51.412;5.432;2023-10-09T08:29:51;31.00;;;13.48;;
74064;SDS011;62421;51.412;5.432;2023-10-09T08:32:36;36.38;;;14.27;;
74064;SDS011;62421;51.412;5.432;2023-10-09T08:35:07;27.63;;;15.67;;
74064;SDS011;62421;51.412;5.432;2023-10-09T08:37:52;30.58;;;14.45;;
74064;SDS011;62421;51.412;5.432;2023-10-09T08:40:19;30.05;;;16.00;;
74064;SDS011;62421;51.412;5.432;2023-10-09T08:42:51;28.00;;;14.40;;
74064;SDS011;62421;51.412;5.432;2023-10-09T08:45:22;32.85;;;15.77;;
74064;SDS011;62421;51.412;5.432;2023-10-09T08:47:50;31.02;;;15.50;;
74064;SDS011;62421;51.412;5.432;2023-10-09T08:50:19;37.13;;;16.67;;
74064;SDS011;62421;51.412;5.432;2023-10-09T08:52:46;31.42;;;14.98;;
74064;SDS011;62421;51.412;5.432;2023-10-09T08:55:13;30.83;;;14.70;;
74064;SDS011;62421;51.412;5.432;2023-10-09T08:57:41;32.47;;;15.77;;
74064;SDS011;62421;51.412;5.432;2023-10-09T09:00:09;34.75;;;15.60;;
74064;SDS011;62421;51.412;5.432;2023-10-09T09:02:46;28.58;;;15.38;;
74064;SDS011;62421;51.412;5.432;2023-10-09T09:05:18;33.70;;;16.13;;
74064;SDS011;62421;51.412;5.432;2023-10-09T09:07:47;32.13;;;14.17;;
74064;SDS011;62421;51.412;5.432;2023-10-09T09:10:13;34.05;;;14.43;;
74064;SDS011;62421;51.412;5.432;2023-10-09T09:12:49;30.75;;;14.95;;
74064;SDS011;62421;51.412;5.432;2023-10-09T09:15:26;32.15;;;15.02;;
74064;SDS011;62421;51.412;5.432;2023-10-09T09:18:03;28.63;;;14.75;;
74064;SDS011;62421;51.412;5.432;2023-10-09T09:20:34;29.63;;;14.60;;
74064;SDS011;62421;51.412;5.432;2023-10-09T09:23:05;28.85;;;14.27;;
74064;SDS011;62421;51.412;5.432;2023-10-09T09:28:09;30.38;;;15.05;;
74064;SDS011;62421;51.412;5.432;2023-10-09T09:30:37;31.35;;;15.48;;
74064;SDS011;62421;51.412;5.432;2023-10-09T09:33:21;29.37;;;14.70;;
74064;SDS011;62421;51.412;5.432;2023-10-09T09:36:07;29.92;;;14.00;;
74064;SDS011;62421;51.412;5.432;2023-10-09T09:38:36;34.72;;;14.63;;
74064;SDS011;62421;51.412;5.432;2023-10-09T09:41:15;34.75;;;13.52;;
74064;SDS011;62421;51.412;5.432;2023-10-09T09:43:51;27.92;;;14.20;;
74064;SDS011;62421;51.412;5.432;2023-10-09T09:46:18;29.47;;;13.73;;
74064;SDS011;62421;51.412;5.432;2023-10-09T09:48:44;30.15;;;14.00;;
74064;SDS011;62421;51.412;5.432;2023-10-09T09:51:12;25.60;;;14.13;;
74064;SDS011;62421;51.412;5.432;2023-10-09T09:53:39;28.25;;;13.80;;
74064;SDS011;62421;51.412;5.432;2023-10-09T09:56:05;26.67;;;14.75;;
74064;SDS011;62421;51.412;5.432;2023-10-09T09:58:31;31.07;;;14.40;;
74064;SDS011;62421;51.412;5.432;2023-10-09T10:01:07;30.75;;;14.48;;
74064;SDS011;62421;51.412;5.432;2023-10-09T10:03:44;31.13;;;14.60;;
74064;SDS011;62421;51.412;5.432;2023-10-09T10:06:14;31.25;;;15.40;;
74064;SDS011;62421;51.412;5.432;2023-10-09T10:08:44;33.88;;;15.80;;
74064;SDS011;62421;51.412;5.432;2023-10-09T10:14:07;32.75;;;15.45;;
74064;SDS011;62421;51.412;5.432;2023-10-09T10:20:03;32.30;;;16.23;;
74064;SDS011;62421;51.412;5.432;2023-10-09T10:23:15;33.40;;;15.98;;
74064;SDS011;62421;51.412;5.432;2023-10-09T10:25:45;31.30;;;16.30;;
74064;SDS011;62421;51.412;5.432;2023-10-09T10:28:20;32.45;;;17.80;;
74064;SDS011;62421;51.412;5.432;2023-10-09T10:31:05;32.93;;;16.43;;
74064;SDS011;62421;51.412;5.432;2023-10-09T10:36:20;29.20;;;15.60;;
74064;SDS011;62421;51.412;5.432;2023-10-09T10:39:07;32.50;;;16.92;;
74064;SDS011;62421;51.412;5.432;2023-10-09T10:41:53;27.60;;;16.05;;
74064;SDS011;62421;51.412;5.432;2023-10-09T10:44:33;27.97;;;16.17;;
74064;SDS011;62421;51.412;5.432;2023-10-09T10:46:59;32.25;;;15.40;;
74064;SDS011;62421;51.412;5.432;2023-10-09T10:49:25;33.70;;;15.93;;
74064;SDS011;62421;51.412;5.432;2023-10-09T10:52:01;35.08;;;15.55;;
74064;SDS011;62421;51.412;5.432;2023-10-09T10:54:40;29.65;;;15.88;;
74064;SDS011;62421;51.412;5.432;2023-10-09T10:57:18;31.00;;;15.70;;
74064;SDS011;62421;51.412;5.432;2023-10-09T10:59:44;29.23;;;15.20;;
74064;SDS011;62421;51.412;5.432;2023-10-09T11:02:10;26.98;;;14.68;;
74064;SDS011;62421;51.412;5.432;2023-10-09T11:04:36;33.47;;;15.57;;
74064;SDS011;62421;51.412;5.432;2023-10-09T11:07:10;28.25;;;14.82;;
74064;SDS011;62421;51.412;5.432;2023-10-09T11:09:47;33.90;;;16.23;;
74064;SDS011;62421;51.412;5.432;2023-10-09T11:12:43;28.77;;;14.00;;
74064;SDS011;62421;51.412;5.432;2023-10-09T11:15:29;31.60;;;14.88;;
74064;SDS011;62421;51.412;5.432;2023-10-09T11:18:09;31.37;;;14.70;;
74064;SDS011;62421;51.412;5.432;2023-10-09T11:20:42;33.55;;;16.83;;
74064;SDS011;62421;51.412;5.432;2023-10-09T11:23:21;30.67;;;16.52;;
74064;SDS011;62421;51.412;5.432;2023-10-09T11:26:00;34.08;;;16.25;;
74064;SDS011;62421;51.412;5.432;2023-10-09T11:29:08;33.63;;;17.25;;
74064;SDS011;62421;51.412;5.432;2023-10-09T11:31:42;32.83;;;15.87;;
74064;SDS011;62421;51.412;5.432;2023-10-09T11:34:22;30.77;;;16.17;;
74064;SDS011;62421;51.412;5.432;2023-10-09T11:37:15;35.13;;;17.33;;
74064;SDS011;62421;51.412;5.432;2023-10-09T11:39:54;33.40;;;17.83;;
74064;SDS011;62421;51.412;5.432;2023-10-09T11:42:21;37.78;;;17.92;;
74064;SDS011;62421;51.412;5.432;2023-10-09T11:45:07;38.07;;;16.73;;
74064;SDS011;62421;51.412;5.432;2023-10-09T11:47:49;35.47;;;16.42;;
74064;SDS011;62421;51.412;5.432;2023-10-09T11:50:33;32.13;;;17.33;;
74064;SDS011;62421;51.412;5.432;2023-10-09T11:53:08;37.25;;;16.48;;
74064;SDS011;62421;51.412;5.432;2023-10-09T11:55:35;41.72;;;17.60;;
74064;SDS011;62421;51.412;5.432;2023-10-09T11:58:01;33.67;;;16.63;;
74064;SDS011;62421;51.412;5.432;2023-10-09T12:00:27;33.45;;;15.27;;
74064;SDS011;62421;51.412;5.432;2023-10-09T12:02:56;30.17;;;17.20;;
74064;SDS011;62421;51.412;5.432;2023-10-09T12:05:21;27.33;;;15.10;;
74064;SDS011;62421;51.412;5.432;2023-10-09T12:07:48;32.27;;;16.30;;
74064;SDS011;62421;51.412;5.432;2023-10-09T12:10:22;33.53;;;16.27;;
74064;SDS011;62421;51.412;5.432;2023-10-09T12:12:54;31.08;;;17.77;;
74064;SDS011;62421;51.412;5.432;2023-10-09T12:15:23;30.23;;;15.85;;
74064;SDS011;62421;51.412;5.432;2023-10-09T12:17:49;31.23;;;16.05;;
74064;SDS011;62421;51.412;5.432;2023-10-09T12:20:15;31.37;;;15.67;;
74064;SDS011;62421;51.412;5.432;2023-10-09T12:23:00;27.15;;;13.85;;
74064;SDS011;62421;51.412;5.432;2023-10-09T12:25:30;28.02;;;14.68;;
74064;SDS011;62421;51.412;5.432;2023-10-09T12:27:59;29.65;;;14.05;;
74064;SDS011;62421;51.412;5.432;2023-10-09T12:30:27;30.83;;;14.37;;
74064;SDS011;62421;51.412;5.432;2023-10-09T12:33:03;24.83;;;13.30;;
74064;SDS011;62421;51.412;5.432;2023-10-09T12:35:28;33.70;;;14.63;;
74064;SDS011;62421;51.412;5.432;2023-10-09T12:37:58;30.48;;;14.15;;
74064;SDS011;62421;51.412;5.432;2023-10-09T12:40:23;31.10;;;12.63;;
74064;SDS011;62421;51.412;5.432;2023-10-09T12:42:52;25.27;;;13.33;;
74064;SDS011;62421;51.412;5.432;2023-10-09T12:45:18;24.23;;;11.55;;
74064;SDS011;62421;51.412;5.432;2023-10-09T12:47:45;21.50;;;11.52;;
74064;SDS011;62421;51.412;5.432;2023-10-09T12:50:12;21.98;;;10.25;;
74064;SDS011;62421;51.412;5.432;2023-10-09T12:52:39;23.67;;;10.67;;
74064;SDS011;62421;51.412;5.432;2023-10-09T12:55:05;22.52;;;10.50;;
74064;SDS011;62421;51.412;5.432;2023-10-09T12:57:33;18.00;;;9.25;;
74064;SDS011;62421;51.412;5.432;2023-10-09T12:59:58;21.58;;;10.68;;
74064;SDS011;62421;51.412;5.432;2023-10-09T13:02:24;18.20;;;9.83;;
74064;SDS011;62421;51.412;5.432;2023-10-09T13:04:55;21.05;;;9.98;;
74064;SDS011;62421;51.412;5.432;2023-10-09T13:07:25;18.58;;;8.73;;
74064;SDS011;62421;51.412;5.432;2023-10-09T13:09:50;19.20;;;9.03;;
74064;SDS011;62421;51.412;5.432;2023-10-09T13:12:34;18.63;;;10.27;;
74064;SDS011;62421;51.412;5.432;2023-10-09T13:15:09;22.70;;;8.77;;
74064;SDS011;62421;51.412;5.432;2023-10-09T13:17:36;18.95;;;8.82;;
74064;SDS011;62421;51.412;5.432;2023-10-09T13:20:05;15.77;;;7.65;;
74064;SDS011;62421;51.412;5.432;2023-10-09T13:22:40;22.88;;;7.55;;
74064;SDS011;62421;51.412;5.432;2023-10-09T13:25:07;19.77;;;7.68;;
74064;SDS011;62421;51.412;5.432;2023-10-09T13:27:49;14.73;;;7.60;;
74064;SDS011;62421;51.412;5.432;2023-10-09T13:30:16;19.27;;;8.02;;
74064;SDS011;62421;51.412;5.432;2023-10-09T13:32:47;17.05;;;8.40;;
74064;SDS011;62421;51.412;5.432;2023-10-09T13:35:14;20.52;;;8.95;;
74064;SDS011;62421;51.412;5.432;2023-10-09T13:37:42;19.08;;;8.50;;
74064;SDS011;62421;51.412;5.432;2023-10-09T13:40:09;21.03;;;7.40;;
74064;SDS011;62421;51.412;5.432;2023-10-09T13:42:36;19.65;;;8.25;;
74064;SDS011;62421;51.412;5.432;2023-10-09T13:45:02;19.75;;;8.13;;
74064;SDS011;62421;51.412;5.432;2023-10-09T13:47:41;17.98;;;8.27;;
74064;SDS011;62421;51.412;5.432;2023-10-09T13:50:09;16.98;;;8.57;;
74064;SDS011;62421;51.412;5.432;2023-10-09T13:52:35;18.40;;;7.53;;
74064;SDS011;62421;51.412;5.432;2023-10-09T13:55:04;20.77;;;7.72;;
74064;SDS011;62421;51.412;5.432;2023-10-09T13:57:42;25.92;;;8.35;;
74064;SDS011;62421;51.412;5.432;2023-10-09T14:00:12;19.03;;;9.13;;
74064;SDS011;62421;51.412;5.432;2023-10-09T14:02:43;16.80;;;7.38;;
74064;SDS011;62421;51.412;5.432;2023-10-09T14:05:11;19.90;;;7.70;;
74064;SDS011;62421;51.412;5.432;2023-10-09T14:07:37;16.15;;;7.97;;
74064;SDS011;62421;51.412;5.432;2023-10-09T14:10:03;22.60;;;8.50;;
74064;SDS011;62421;51.412;5.432;2023-10-09T14:12:42;19.90;;;7.30;;
74064;SDS011;62421;51.412;5.432;2023-10-09T14:15:11;23.42;;;9.05;;
74064;SDS011;62421;51.412;5.432;2023-10-09T14:17:42;25.90;;;7.82;;
74064;SDS011;62421;51.412;5.432;2023-10-09T14:20:07;15.30;;;6.90;;
74064;SDS011;62421;51.412;5.432;2023-10-09T14:22:55;19.42;;;7.70;;
74064;SDS011;62421;51.412;5.432;2023-10-09T14:25:21;17.53;;;6.77;;
74064;SDS011;62421;51.412;5.432;2023-10-09T14:27:46;17.92;;;7.38;;
74064;SDS011;62421;51.412;5.432;2023-10-09T14:30:13;19.17;;;6.60;;
74064;SDS011;62421;51.412;5.432;2023-10-09T14:32:47;15.63;;;6.88;;
74064;SDS011;62421;51.412;5.432;2023-10-09T14:35:16;18.27;;;6.88;;
74064;SDS011;62421;51.412;5.432;2023-10-09T14:37:46;18.25;;;6.70;;
74064;SDS011;62421;51.412;5.432;2023-10-09T14:40:11;20.33;;;6.37;;
74064;SDS011;62421;51.412;5.432;2023-10-09T14:42:45;16.55;;;7.30;;
74064;SDS011;62421;51.412;5.432;2023-10-09T14:45:11;17.77;;;7.30;;
74064;SDS011;62421;51.412;5.432;2023-10-09T14:47:44;20.15;;;6.15;;
74064;SDS011;62421;51.412;5.432;2023-10-09T14:50:11;17.00;;;6.15;;
74064;SDS011;62421;51.412;5.432;2023-10-09T14:52:38;15.87;;;6.27;;
74064;SDS011;62421;51.412;5.432;2023-10-09T14:55:05;14.27;;;6.05;;
74064;SDS011;62421;51.412;5.432;2023-10-09T14:57:31;14.82;;;6.60;;
74064;SDS011;62421;51.412;5.432;2023-10-09T14:59:59;17.98;;;5.43;;
74064;SDS011;62421;51.412;5.432;2023-10-09T15:02:24;19.93;;;7.57;;
74064;SDS011;62421;51.412;5.432;2023-10-09T15:04:50;16.65;;;6.30;;
74064;SDS011;62421;51.412;5.432;2023-10-09T15:07:17;16.93;;;6.50;;
74064;SDS011;62421;51.412;5.432;2023-10-09T15:09:44;12.75;;;5.68;;
74064;SDS011;62421;51.412;5.432;2023-10-09T15:12:09;15.87;;;5.60;;
74064;SDS011;62421;51.412;5.432;2023-10-09T15:14:36;14.73;;;6.45;;
74064;SDS011;62421;51.412;5.432;2023-10-09T15:17:02;16.80;;;5.60;;
74064;SDS011;62421;51.412;5.432;2023-10-09T15:19:27;19.93;;;5.93;;
74064;SDS011;62421;51.412;5.432;2023-10-09T15:21:56;14.27;;;6.35;;
74064;SDS011;62421;51.412;5.432;2023-10-09T15:24:23;23.90;;;6.07;;
74064;SDS011;62421;51.412;5.432;2023-10-09T15:26:50;20.00;;;6.18;;
74064;SDS011;62421;51.412;5.432;2023-10-09T15:29:22;15.33;;;5.63;;